Main page
METAR-TAF:

METAR-TAF

Airports :

Ingeniero Aeronáutico Ambrosio L.V. Taravella International Airport

Córdoba, Argentina

latitude: 31-19S, longitude: 064-13W, elevation: 484 m

Current weather observation

The report was made 37 minutes ago, at 03:00 UTC
Wind 3 kt from the Northeast
Temperature 9°C
Humidity 87%
Pressure 1014 hPa
Visibility 10 km or more
no clouds below 1500 m and no cumulonimbus

METAR: SACO 270300Z 04003KT CAVOK 09/07 Q1014 NOSIG

Time: 00:37 (03:37 UTC)

Forecast

The report was made 4 hours and 37 minutes ago, at 23:00 UTC
Forecast valid from 27 at 00 UTC to 27 at 24 UTC
Wind 5 kt from the Northwest
Visibility 10 km or more
no clouds below 1500 m and no cumulonimbus
Becoming
from 27 at 13 UTC to 27 at 17 UTC
Wind 10 kt from the North/Northeast with gusts up to 20 kt
Visibility 10 km or more
Few clouds at a height of 3000 ft

TAF: SACO 262300Z 2700/2724 32005KT CAVOK TX26/2718Z TN07/2710Z BECMG 2713/2717 02010G20KT 9999 FEW030

Weather observations and forecasts of more than 4000 airports (METAR and TAF reports).

The available stations are represented by yellow and red dots on the map.

Hover mouse over dot to see the name of the station.

Then click to see weather observations and forecasts.

To change the map : click on the green buttons with a black cross to zoom in, on the green button with a dash to zoom out, or on the green arrows for adjacent maps.


METAR-TAF: